ANA247 RJTT-ROAH
Flight info
| Callsign | ANA247 |
|---|---|
| Flight time | 2h 20m |
| Altitude | 34000 |
| Route | LAXAS Y56 TOHME Y54 KOHWA Y12 AYANO Y128 LAXEL Y52 TONAR Y525 IHEYA |
| Aircraft | A320/M-SDE3FGHIRWY/LB1 |
Departure
| Time | 2026-04-22 14:18 |
|---|---|
| Airport | Tokyo Haneda International Airport (RJTT) |
Arrival
| Time | 2026-04-22 16:38 |
|---|---|
| Airport | Naha International Airport (ROAH) |
| Time | Latitude | Longitude | Altitude | Speed | Heading |
|---|---|---|---|---|---|
| 2026-04-22 13:55 | 35.55927 | 139.78356 | 24 ft | 0 kts | 239° |
| 2026-04-22 14:04 | 35.55930 | 139.78362 | 23 ft | 2 kts | 238° |
| 2026-04-22 14:04 | 35.55940 | 139.78378 | 23 ft | 2 kts | 235° |
| 2026-04-22 14:04 | 35.55950 | 139.78394 | 24 ft | 2 kts | 227° |
| 2026-04-22 14:05 | 35.55961 | 139.78408 | 25 ft | 2 kts | 220° |
| 2026-04-22 14:05 | 35.55974 | 139.78420 | 25 ft | 2 kts | 209° |
| 2026-04-22 14:05 | 35.56005 | 139.78433 | 25 ft | 2 kts | 179° |
| 2026-04-22 14:06 | 35.56021 | 139.78431 | 24 ft | 2 kts | 165° |
| 2026-04-22 14:06 | 35.56036 | 139.78425 | 25 ft | 2 kts | 154° |
| 2026-04-22 14:06 | 35.56043 | 139.78421 | 24 ft | 0 kts | 151° |
| 2026-04-22 14:06 | 35.56044 | 139.78421 | 24 ft | 0 kts | 151° |
| 2026-04-22 14:08 | 35.56036 | 139.78426 | 25 ft | 5 kts | 150° |
| 2026-04-22 14:08 | 35.55978 | 139.78469 | 25 ft | 12 kts | 149° |
| 2026-04-22 14:09 | 35.55904 | 139.78521 | 24 ft | 13 kts | 150° |
| 2026-04-22 14:09 | 35.55821 | 139.78578 | 26 ft | 14 kts | 151° |
| 2026-04-22 14:09 | 35.55731 | 139.78641 | 25 ft | 15 kts | 149° |
| 2026-04-22 14:09 | 35.55660 | 139.78701 | 24 ft | 11 kts | 129° |
| 2026-04-22 14:10 | 35.55667 | 139.78788 | 24 ft | 10 kts | 62° |
| 2026-04-22 14:10 | 35.55699 | 139.78854 | 24 ft | 8 kts | 59° |
| 2026-04-22 14:10 | 35.55725 | 139.78910 | 23 ft | 7 kts | 60° |
| 2026-04-22 14:10 | 35.55744 | 139.78960 | 25 ft | 5 kts | 82° |
| 2026-04-22 14:11 | 35.55735 | 139.78999 | 25 ft | 4 kts | 123° |
| 2026-04-22 14:11 | 35.55697 | 139.79034 | 23 ft | 10 kts | 151° |
| 2026-04-22 14:11 | 35.55630 | 139.79081 | 24 ft | 13 kts | 149° |
| 2026-04-22 14:11 | 35.55535 | 139.79149 | 23 ft | 18 kts | 150° |
| 2026-04-22 14:12 | 35.55411 | 139.79236 | 24 ft | 23 kts | 149° |
| 2026-04-22 14:12 | 35.55266 | 139.79339 | 23 ft | 25 kts | 150° |
| 2026-04-22 14:12 | 35.55116 | 139.79446 | 23 ft | 25 kts | 150° |
| 2026-04-22 14:12 | 35.54963 | 139.79555 | 23 ft | 26 kts | 150° |
| 2026-04-22 14:13 | 35.54808 | 139.79665 | 24 ft | 26 kts | 150° |
| 2026-04-22 14:13 | 35.54652 | 139.79776 | 25 ft | 26 kts | 150° |
| 2026-04-22 14:13 | 35.54494 | 139.79887 | 25 ft | 26 kts | 150° |
| 2026-04-22 14:13 | 35.54386 | 139.79965 | 23 ft | 14 kts | 152° |
| 2026-04-22 14:14 | 35.54297 | 139.80027 | 23 ft | 15 kts | 149° |
| 2026-04-22 14:14 | 35.54201 | 139.80096 | 23 ft | 18 kts | 149° |
| 2026-04-22 14:14 | 35.54076 | 139.80185 | 25 ft | 23 kts | 150° |
| 2026-04-22 14:14 | 35.53955 | 139.80271 | 23 ft | 10 kts | 147° |
| 2026-04-22 14:15 | 35.53914 | 139.80325 | 23 ft | 8 kts | 112° |
| 2026-04-22 14:15 | 35.53926 | 139.80379 | 26 ft | 6 kts | 62° |
| 2026-04-22 14:15 | 35.53944 | 139.80419 | 23 ft | 6 kts | 58° |
| 2026-04-22 14:15 | 35.53974 | 139.80468 | 24 ft | 7 kts | 43° |
| 2026-04-22 14:16 | 35.54011 | 139.80477 | 24 ft | 5 kts | 349° |
| 2026-04-22 14:16 | 35.54037 | 139.80461 | 24 ft | 3 kts | 330° |
| 2026-04-22 14:16 | 35.54051 | 139.80451 | 24 ft | 0 kts | 330° |
| 2026-04-22 14:17 | 35.54210 | 139.80338 | 24 ft | 64 kts | 329° |
| 2026-04-22 14:17 | 35.54791 | 139.79927 | 24 ft | 126 kts | 330° |
| 2026-04-22 14:17 | 35.55697 | 139.79284 | 48 ft | 171 kts | 329° |
| 2026-04-22 14:17 | 35.56726 | 139.78569 | 623 ft | 172 kts | 329° |
| 2026-04-22 14:18 | 35.57847 | 139.78006 | 1255 ft | 180 kts | 354° |
| 2026-04-22 14:18 | 35.59041 | 139.78462 | 1884 ft | 186 kts | 37° |
| 2026-04-22 14:18 | 35.59807 | 139.79760 | 2351 ft | 197 kts | 74° |
| 2026-04-22 14:18 | 35.59738 | 139.81491 | 2617 ft | 217 kts | 114° |
| 2026-04-22 14:19 | 35.58996 | 139.83220 | 2846 ft | 242 kts | 118° |
| 2026-04-22 14:19 | 35.58180 | 139.85142 | 3235 ft | 263 kts | 116° |
| 2026-04-22 14:19 | 35.57352 | 139.87190 | 3956 ft | 270 kts | 116° |
| 2026-04-22 14:19 | 35.56522 | 139.89273 | 4803 ft | 272 kts | 117° |
| 2026-04-22 14:20 | 35.54504 | 139.93210 | 6416 ft | 276 kts | 141° |
| 2026-04-22 14:20 | 35.52865 | 139.94407 | 7148 ft | 275 kts | 164° |
| 2026-04-22 14:20 | 35.50995 | 139.94792 | 7909 ft | 272 kts | 186° |
| 2026-04-22 14:21 | 35.47325 | 139.93989 | 9576 ft | 268 kts | 200° |
| 2026-04-22 14:21 | 35.45618 | 139.93137 | 10348 ft | 264 kts | 214° |
| 2026-04-22 14:22 | 35.42747 | 139.89899 | 10782 ft | 304 kts | 230° |
| 2026-04-22 14:22 | 35.41277 | 139.87904 | 10940 ft | 324 kts | 230° |
| 2026-04-22 14:22 | 35.38150 | 139.83725 | 12025 ft | 338 kts | 230° |
| 2026-04-22 14:23 | 35.36545 | 139.81603 | 12665 ft | 342 kts | 230° |
| 2026-04-22 14:23 | 35.34916 | 139.79455 | 13288 ft | 346 kts | 231° |
| 2026-04-22 14:23 | 35.33268 | 139.77286 | 13884 ft | 350 kts | 231° |
| 2026-04-22 14:23 | 35.31597 | 139.75091 | 14428 ft | 353 kts | 230° |
| 2026-04-22 14:24 | 35.29757 | 139.73054 | 14958 ft | 359 kts | 225° |
| 2026-04-22 14:24 | 35.27855 | 139.71058 | 15509 ft | 361 kts | 225° |
| 2026-04-22 14:24 | 35.25940 | 139.69052 | 16067 ft | 364 kts | 225° |
| 2026-04-22 14:24 | 35.24007 | 139.67033 | 16620 ft | 366 kts | 225° |
| 2026-04-22 14:25 | 35.22080 | 139.65025 | 17102 ft | 370 kts | 226° |
| 2026-04-22 14:25 | 35.20109 | 139.62974 | 17620 ft | 373 kts | 226° |
| 2026-04-22 14:25 | 35.18127 | 139.60916 | 18143 ft | 375 kts | 226° |
| 2026-04-22 14:25 | 35.16132 | 139.58842 | 18593 ft | 378 kts | 226° |
| 2026-04-22 14:26 | 35.14125 | 139.56758 | 19042 ft | 380 kts | 226° |
| 2026-04-22 14:26 | 35.12107 | 139.54660 | 19483 ft | 382 kts | 226° |
| 2026-04-22 14:26 | 35.10112 | 139.52513 | 19911 ft | 381 kts | 231° |
| 2026-04-22 14:26 | 35.08448 | 139.50033 | 20334 ft | 376 kts | 241° |
| 2026-04-22 14:27 | 35.07223 | 139.47228 | 20763 ft | 373 kts | 251° |
| 2026-04-22 14:27 | 35.06465 | 139.44206 | 21184 ft | 372 kts | 260° |
| 2026-04-22 14:27 | 35.05957 | 139.41092 | 21605 ft | 374 kts | 260° |
| 2026-04-22 14:27 | 35.05445 | 139.37984 | 22009 ft | 375 kts | 260° |
| 2026-04-22 14:28 | 35.04921 | 139.34849 | 22440 ft | 377 kts | 260° |
| 2026-04-22 14:28 | 35.04392 | 139.31705 | 22849 ft | 379 kts | 260° |
| 2026-04-22 14:28 | 35.03861 | 139.28553 | 23241 ft | 380 kts | 260° |
| 2026-04-22 14:28 | 35.03330 | 139.25389 | 23606 ft | 382 kts | 260° |
| 2026-04-22 14:29 | 35.02798 | 139.22203 | 23921 ft | 383 kts | 260° |
| 2026-04-22 14:29 | 35.02264 | 139.19014 | 24240 ft | 385 kts | 260° |
| 2026-04-22 14:29 | 35.01726 | 139.15813 | 24564 ft | 386 kts | 260° |
| 2026-04-22 14:29 | 35.01186 | 139.12605 | 24889 ft | 387 kts | 260° |
| 2026-04-22 14:30 | 35.00649 | 139.09427 | 25233 ft | 388 kts | 260° |
| 2026-04-22 14:30 | 35.00101 | 139.06198 | 25561 ft | 388 kts | 260° |
| 2026-04-22 14:30 | 34.99552 | 139.02971 | 25864 ft | 389 kts | 260° |
| 2026-04-22 14:30 | 34.99002 | 138.99730 | 26192 ft | 390 kts | 261° |
| 2026-04-22 14:31 | 34.98674 | 138.96462 | 26490 ft | 390 kts | 267° |
| 2026-04-22 14:31 | 34.98509 | 138.93157 | 26785 ft | 391 kts | 267° |
| 2026-04-22 14:31 | 34.98342 | 138.89843 | 27072 ft | 392 kts | 267° |
| 2026-04-22 14:31 | 34.98173 | 138.86526 | 27335 ft | 393 kts | 267° |
| 2026-04-22 14:32 | 34.97997 | 138.83190 | 27586 ft | 394 kts | 267° |
| 2026-04-22 14:32 | 34.97818 | 138.79851 | 27862 ft | 396 kts | 267° |
| 2026-04-22 14:32 | 34.97699 | 138.77626 | 28046 ft | 397 kts | 267° |
| 2026-04-22 14:32 | 34.97523 | 138.74269 | 28332 ft | 397 kts | 267° |
| 2026-04-22 14:33 | 34.97345 | 138.70911 | 28714 ft | 395 kts | 267° |
| 2026-04-22 14:33 | 34.97167 | 138.67576 | 29117 ft | 393 kts | 267° |
| 2026-04-22 14:33 | 34.96987 | 138.64263 | 29484 ft | 391 kts | 267° |
| 2026-04-22 14:33 | 34.96807 | 138.60961 | 29837 ft | 390 kts | 267° |
| 2026-04-22 14:34 | 34.96626 | 138.57659 | 30179 ft | 389 kts | 267° |
| 2026-04-22 14:34 | 34.96443 | 138.54373 | 30501 ft | 387 kts | 267° |
| 2026-04-22 14:34 | 34.96261 | 138.51101 | 30854 ft | 385 kts | 267° |
| 2026-04-22 14:34 | 34.96080 | 138.47859 | 31225 ft | 382 kts | 266° |
| 2026-04-22 14:35 | 34.95901 | 138.44647 | 31588 ft | 379 kts | 266° |
| 2026-04-22 14:35 | 34.95725 | 138.41451 | 31946 ft | 376 kts | 266° |
| 2026-04-22 14:35 | 34.95552 | 138.38275 | 32281 ft | 374 kts | 266° |
| 2026-04-22 14:35 | 34.95378 | 138.35120 | 32605 ft | 373 kts | 266° |
| 2026-04-22 14:36 | 34.95201 | 138.31974 | 32930 ft | 371 kts | 266° |
| 2026-04-22 14:36 | 34.95023 | 138.28845 | 33250 ft | 369 kts | 265° |
| 2026-04-22 14:36 | 34.94843 | 138.25739 | 33596 ft | 367 kts | 265° |
| 2026-04-22 14:36 | 34.94663 | 138.22648 | 33920 ft | 365 kts | 265° |
| 2026-04-22 14:37 | 34.94481 | 138.19565 | 33967 ft | 366 kts | 265° |
| 2026-04-22 14:37 | 34.94121 | 138.13414 | 33978 ft | 366 kts | 265° |
| 2026-04-22 14:38 | 34.93762 | 138.07228 | 33979 ft | 366 kts | 265° |
| 2026-04-22 14:38 | 34.93398 | 138.01040 | 33962 ft | 366 kts | 265° |
| 2026-04-22 14:39 | 34.93030 | 137.94822 | 33979 ft | 369 kts | 265° |
| 2026-04-22 14:39 | 34.92657 | 137.88567 | 33986 ft | 370 kts | 264° |
| 2026-04-22 14:40 | 34.92089 | 137.79199 | 33980 ft | 369 kts | 264° |
| 2026-04-22 14:40 | 34.91702 | 137.72959 | 33979 ft | 370 kts | 264° |
| 2026-04-22 14:41 | 34.91075 | 137.66747 | 33979 ft | 369 kts | 255° |
| 2026-04-22 14:41 | 34.89362 | 137.60870 | 33970 ft | 370 kts | 252° |
| 2026-04-22 14:42 | 34.87592 | 137.54976 | 33957 ft | 371 kts | 251° |
| 2026-04-22 14:42 | 34.85820 | 137.49078 | 33965 ft | 371 kts | 251° |
| 2026-04-22 14:43 | 34.84070 | 137.43162 | 33969 ft | 371 kts | 252° |
| 2026-04-22 14:43 | 34.82385 | 137.37218 | 33954 ft | 372 kts | 252° |
| 2026-04-22 14:44 | 34.80700 | 137.31255 | 33963 ft | 373 kts | 252° |
| 2026-04-22 14:44 | 34.78996 | 137.25286 | 33961 ft | 373 kts | 252° |
| 2026-04-22 14:45 | 34.77276 | 137.19329 | 33960 ft | 374 kts | 252° |
| 2026-04-22 14:45 | 34.75555 | 137.13364 | 33990 ft | 373 kts | 252° |
| 2026-04-22 14:46 | 34.73837 | 137.07414 | 33993 ft | 372 kts | 252° |
| 2026-04-22 14:46 | 34.72117 | 137.01493 | 33987 ft | 371 kts | 252° |
| 2026-04-22 14:47 | 34.69842 | 136.95904 | 33964 ft | 377 kts | 237° |
| 2026-04-22 14:47 | 34.65895 | 136.91557 | 33928 ft | 388 kts | 225° |
| 2026-04-22 14:48 | 34.61587 | 136.87579 | 33930 ft | 390 kts | 224° |
| 2026-04-22 14:48 | 34.57260 | 136.83570 | 33939 ft | 391 kts | 224° |
| 2026-04-22 14:49 | 34.52926 | 136.79558 | 33946 ft | 392 kts | 224° |
| 2026-04-22 14:49 | 34.48572 | 136.75541 | 33944 ft | 393 kts | 224° |
| 2026-04-22 14:50 | 34.44220 | 136.71530 | 33948 ft | 393 kts | 224° |
| 2026-04-22 14:50 | 34.39861 | 136.67517 | 33957 ft | 393 kts | 224° |
| 2026-04-22 14:51 | 34.35498 | 136.63513 | 33974 ft | 393 kts | 224° |
| 2026-04-22 14:51 | 34.31137 | 136.59516 | 33980 ft | 393 kts | 224° |
| 2026-04-22 14:52 | 34.26805 | 136.55501 | 33965 ft | 392 kts | 224° |
| 2026-04-22 14:52 | 34.22529 | 136.51466 | 33968 ft | 392 kts | 225° |
| 2026-04-22 14:53 | 34.18223 | 136.47407 | 33973 ft | 393 kts | 224° |
| 2026-04-22 14:53 | 34.13895 | 136.43366 | 33975 ft | 393 kts | 224° |
| 2026-04-22 14:54 | 34.09522 | 136.39379 | 33975 ft | 398 kts | 219° |
| 2026-04-22 14:54 | 34.04602 | 136.36186 | 33962 ft | 403 kts | 216° |
| 2026-04-22 14:55 | 33.99623 | 136.33050 | 33946 ft | 403 kts | 216° |
| 2026-04-22 14:55 | 33.94647 | 136.29914 | 33957 ft | 404 kts | 216° |
| 2026-04-22 14:56 | 33.89662 | 136.26778 | 33965 ft | 404 kts | 216° |
| 2026-04-22 14:56 | 33.84702 | 136.23655 | 33968 ft | 405 kts | 216° |
| 2026-04-22 14:57 | 33.79711 | 136.20513 | 33973 ft | 405 kts | 216° |
| 2026-04-22 14:57 | 33.74705 | 136.17381 | 33957 ft | 405 kts | 215° |
| 2026-04-22 14:58 | 33.69698 | 136.14253 | 33946 ft | 406 kts | 215° |
| 2026-04-22 14:58 | 33.64695 | 136.11120 | 33951 ft | 406 kts | 215° |
| 2026-04-22 14:59 | 33.59683 | 136.07985 | 33960 ft | 406 kts | 215° |
| 2026-04-22 14:59 | 33.54664 | 136.04852 | 33975 ft | 406 kts | 214° |
| 2026-04-22 15:00 | 33.49643 | 136.01729 | 33958 ft | 407 kts | 214° |
| 2026-04-22 15:00 | 33.44646 | 135.98620 | 33960 ft | 407 kts | 214° |
| 2026-04-22 15:01 | 33.39614 | 135.95487 | 33947 ft | 408 kts | 214° |
| 2026-04-22 15:01 | 33.34550 | 135.92347 | 33949 ft | 409 kts | 214° |
| 2026-04-22 15:02 | 33.29491 | 135.89213 | 33955 ft | 410 kts | 214° |
| 2026-04-22 15:02 | 33.24422 | 135.86079 | 33960 ft | 410 kts | 214° |
| 2026-04-22 15:03 | 33.19353 | 135.82943 | 33944 ft | 411 kts | 214° |
| 2026-04-22 15:03 | 33.14268 | 135.79798 | 33953 ft | 411 kts | 214° |
| 2026-04-22 15:04 | 33.09203 | 135.76674 | 33968 ft | 412 kts | 214° |
| 2026-04-22 15:04 | 33.04106 | 135.73541 | 33966 ft | 413 kts | 214° |
| 2026-04-22 15:05 | 32.98998 | 135.70407 | 33965 ft | 413 kts | 214° |
| 2026-04-22 15:05 | 32.93894 | 135.67265 | 33943 ft | 414 kts | 214° |
| 2026-04-22 15:06 | 32.88770 | 135.64114 | 33950 ft | 415 kts | 214° |
| 2026-04-22 15:06 | 32.83632 | 135.60967 | 33954 ft | 415 kts | 214° |
| 2026-04-22 15:07 | 32.78492 | 135.57828 | 33947 ft | 416 kts | 214° |
| 2026-04-22 15:07 | 32.73341 | 135.54690 | 33955 ft | 416 kts | 214° |
| 2026-04-22 15:08 | 32.68173 | 135.51537 | 33941 ft | 417 kts | 214° |
| 2026-04-22 15:08 | 32.63005 | 135.48384 | 33947 ft | 418 kts | 214° |
| 2026-04-22 15:09 | 32.57825 | 135.45228 | 33958 ft | 419 kts | 214° |
| 2026-04-22 15:09 | 32.52676 | 135.42087 | 33965 ft | 419 kts | 214° |
| 2026-04-22 15:10 | 32.47476 | 135.38934 | 33976 ft | 419 kts | 214° |
| 2026-04-22 15:10 | 32.42277 | 135.35802 | 33931 ft | 420 kts | 214° |
| 2026-04-22 15:11 | 32.37070 | 135.32647 | 33941 ft | 421 kts | 214° |
| 2026-04-22 15:11 | 32.31843 | 135.29482 | 33947 ft | 422 kts | 214° |
| 2026-04-22 15:12 | 32.26615 | 135.26317 | 33957 ft | 422 kts | 214° |
| 2026-04-22 15:12 | 32.21380 | 135.23158 | 33964 ft | 423 kts | 214° |
| 2026-04-22 15:13 | 32.16136 | 135.20010 | 33950 ft | 423 kts | 214° |
| 2026-04-22 15:13 | 32.10964 | 135.16737 | 33954 ft | 417 kts | 220° |
| 2026-04-22 15:14 | 32.06821 | 135.12135 | 33962 ft | 405 kts | 237° |
| 2026-04-22 15:14 | 32.03419 | 135.06900 | 33964 ft | 405 kts | 237° |
| 2026-04-22 15:15 | 31.99981 | 135.01638 | 33965 ft | 405 kts | 237° |
| 2026-04-22 15:15 | 31.96541 | 134.96378 | 33971 ft | 405 kts | 237° |
| 2026-04-22 15:16 | 31.93110 | 134.91135 | 33961 ft | 404 kts | 237° |
| 2026-04-22 15:16 | 31.89690 | 134.85902 | 33966 ft | 403 kts | 237° |
| 2026-04-22 15:17 | 31.86267 | 134.80677 | 33966 ft | 403 kts | 237° |
| 2026-04-22 15:17 | 31.82843 | 134.75470 | 33966 ft | 403 kts | 236° |
| 2026-04-22 15:18 | 31.79407 | 134.70267 | 33963 ft | 403 kts | 236° |
| 2026-04-22 15:18 | 31.76557 | 134.65946 | 33960 ft | 402 kts | 236° |
| 2026-04-22 15:19 | 31.73123 | 134.60741 | 33967 ft | 402 kts | 236° |
| 2026-04-22 15:19 | 31.69138 | 134.54707 | 33945 ft | 402 kts | 236° |
| 2026-04-22 15:20 | 31.66263 | 134.50363 | 33948 ft | 402 kts | 236° |
| 2026-04-22 15:20 | 31.62847 | 134.45218 | 33950 ft | 402 kts | 236° |
| 2026-04-22 15:21 | 31.59392 | 134.40013 | 33959 ft | 402 kts | 236° |
| 2026-04-22 15:21 | 31.55981 | 134.34875 | 33932 ft | 402 kts | 236° |
| 2026-04-22 15:22 | 31.52541 | 134.29701 | 33932 ft | 402 kts | 236° |
| 2026-04-22 15:22 | 31.49096 | 134.24522 | 33933 ft | 403 kts | 236° |
| 2026-04-22 15:23 | 31.45644 | 134.19348 | 33925 ft | 403 kts | 236° |
| 2026-04-22 15:23 | 31.42188 | 134.14174 | 33915 ft | 404 kts | 236° |
| 2026-04-22 15:24 | 31.38714 | 134.08986 | 33918 ft | 405 kts | 236° |
| 2026-04-22 15:24 | 31.35237 | 134.03799 | 33916 ft | 405 kts | 236° |
| 2026-04-22 15:25 | 31.31761 | 133.98611 | 33910 ft | 405 kts | 236° |
| 2026-04-22 15:25 | 31.28273 | 133.93419 | 33911 ft | 406 kts | 236° |
| 2026-04-22 15:26 | 31.24798 | 133.88266 | 33915 ft | 406 kts | 236° |
| 2026-04-22 15:26 | 31.21304 | 133.83081 | 33895 ft | 406 kts | 236° |
| 2026-04-22 15:27 | 31.17803 | 133.77883 | 33893 ft | 407 kts | 236° |
| 2026-04-22 15:27 | 31.14295 | 133.72683 | 33897 ft | 408 kts | 236° |
| 2026-04-22 15:28 | 31.10784 | 133.67477 | 33902 ft | 408 kts | 236° |
| 2026-04-22 15:28 | 31.07256 | 133.62271 | 33888 ft | 409 kts | 235° |
| 2026-04-22 15:29 | 31.03748 | 133.57097 | 33893 ft | 409 kts | 235° |
| 2026-04-22 15:30 | 30.98451 | 133.49279 | 33899 ft | 409 kts | 235° |
| 2026-04-22 15:30 | 30.94911 | 133.44069 | 33883 ft | 410 kts | 235° |
| 2026-04-22 15:31 | 30.91366 | 133.38865 | 33895 ft | 410 kts | 235° |
| 2026-04-22 15:31 | 30.87814 | 133.33658 | 33896 ft | 411 kts | 235° |
| 2026-04-22 15:32 | 30.84366 | 133.28602 | 33898 ft | 411 kts | 235° |
| 2026-04-22 15:32 | 30.80806 | 133.23392 | 33883 ft | 412 kts | 235° |
| 2026-04-22 15:33 | 30.77231 | 133.18167 | 33881 ft | 413 kts | 235° |
| 2026-04-22 15:33 | 30.73680 | 133.12980 | 33883 ft | 413 kts | 235° |
| 2026-04-22 15:34 | 30.70093 | 133.07755 | 33871 ft | 414 kts | 234° |
| 2026-04-22 15:34 | 30.66495 | 133.02526 | 33870 ft | 414 kts | 235° |
| 2026-04-22 15:35 | 30.62899 | 132.97296 | 33888 ft | 414 kts | 235° |
| 2026-04-22 15:35 | 30.59406 | 132.92222 | 33889 ft | 415 kts | 232° |
| 2026-04-22 15:36 | 30.55787 | 132.86972 | 33892 ft | 414 kts | 234° |
| 2026-04-22 15:36 | 30.52186 | 132.81769 | 33895 ft | 413 kts | 234° |
| 2026-04-22 15:37 | 30.48593 | 132.76574 | 33888 ft | 413 kts | 235° |
| 2026-04-22 15:37 | 30.45002 | 132.71374 | 33878 ft | 413 kts | 234° |
| 2026-04-22 15:38 | 30.41406 | 132.66186 | 33863 ft | 413 kts | 234° |
| 2026-04-22 15:38 | 30.36009 | 132.58415 | 33869 ft | 412 kts | 235° |
| 2026-04-22 15:39 | 30.32419 | 132.53250 | 33872 ft | 412 kts | 235° |
| 2026-04-22 15:39 | 30.28818 | 132.48078 | 33859 ft | 413 kts | 234° |
| 2026-04-22 15:40 | 30.25212 | 132.42902 | 33853 ft | 413 kts | 234° |
| 2026-04-22 15:40 | 30.21626 | 132.37759 | 33866 ft | 414 kts | 235° |
| 2026-04-22 15:41 | 30.18000 | 132.32580 | 33843 ft | 414 kts | 234° |
| 2026-04-22 15:41 | 30.14353 | 132.27386 | 33843 ft | 416 kts | 234° |
| 2026-04-22 15:42 | 30.10709 | 132.22184 | 33847 ft | 416 kts | 234° |
| 2026-04-22 15:42 | 30.07069 | 132.16982 | 33853 ft | 416 kts | 234° |
| 2026-04-22 15:43 | 30.03426 | 132.11792 | 33830 ft | 417 kts | 234° |
| 2026-04-22 15:43 | 29.99780 | 132.06622 | 33832 ft | 418 kts | 234° |
| 2026-04-22 15:44 | 29.96110 | 132.01411 | 33831 ft | 418 kts | 234° |
| 2026-04-22 15:44 | 29.92445 | 131.96210 | 33840 ft | 417 kts | 234° |
| 2026-04-22 15:45 | 29.88785 | 131.91032 | 33829 ft | 417 kts | 234° |
| 2026-04-22 15:45 | 29.85114 | 131.85850 | 33827 ft | 417 kts | 234° |
| 2026-04-22 15:46 | 29.81443 | 131.80666 | 33824 ft | 418 kts | 234° |
| 2026-04-22 15:46 | 29.77705 | 131.75542 | 33831 ft | 417 kts | 233° |
| 2026-04-22 15:47 | 29.73927 | 131.70480 | 33813 ft | 417 kts | 233° |
| 2026-04-22 15:47 | 29.70174 | 131.65438 | 33808 ft | 417 kts | 233° |
| 2026-04-22 15:48 | 29.66405 | 131.60360 | 33809 ft | 417 kts | 233° |
| 2026-04-22 15:48 | 29.62640 | 131.55280 | 33798 ft | 417 kts | 233° |
| 2026-04-22 15:49 | 29.58868 | 131.50193 | 33795 ft | 418 kts | 233° |
| 2026-04-22 15:49 | 29.55115 | 131.45136 | 33799 ft | 418 kts | 233° |
| 2026-04-22 15:50 | 29.51338 | 131.40060 | 33796 ft | 418 kts | 233° |
| 2026-04-22 15:50 | 29.47557 | 131.34990 | 33778 ft | 418 kts | 233° |
| 2026-04-22 15:51 | 29.43756 | 131.29902 | 33781 ft | 420 kts | 233° |
| 2026-04-22 15:51 | 29.39954 | 131.24819 | 33779 ft | 420 kts | 233° |
| 2026-04-22 15:52 | 29.36145 | 131.19722 | 33785 ft | 420 kts | 233° |
| 2026-04-22 15:52 | 29.32356 | 131.14663 | 33771 ft | 421 kts | 232° |
| 2026-04-22 15:53 | 29.28540 | 131.09572 | 33781 ft | 421 kts | 233° |
| 2026-04-22 15:53 | 29.24718 | 131.04491 | 33781 ft | 421 kts | 233° |
| 2026-04-22 15:54 | 29.20883 | 130.99400 | 33856 ft | 421 kts | 233° |
| 2026-04-22 15:54 | 29.17056 | 130.94312 | 33870 ft | 421 kts | 233° |
| 2026-04-22 15:55 | 29.13229 | 130.89233 | 33869 ft | 421 kts | 233° |
| 2026-04-22 15:55 | 29.09397 | 130.84151 | 33871 ft | 421 kts | 233° |
| 2026-04-22 15:56 | 29.05589 | 130.79111 | 33858 ft | 421 kts | 233° |
| 2026-04-22 15:56 | 29.01753 | 130.74048 | 33852 ft | 421 kts | 232° |
| 2026-04-22 15:57 | 28.97914 | 130.68981 | 33856 ft | 422 kts | 233° |
| 2026-04-22 15:57 | 28.94071 | 130.63907 | 33854 ft | 422 kts | 232° |
| 2026-04-22 15:58 | 28.90225 | 130.58848 | 33859 ft | 422 kts | 232° |
| 2026-04-22 15:58 | 28.86369 | 130.53776 | 33853 ft | 422 kts | 232° |
| 2026-04-22 15:59 | 28.82514 | 130.48716 | 33858 ft | 423 kts | 232° |
| 2026-04-22 15:59 | 28.78650 | 130.43661 | 33860 ft | 423 kts | 232° |
| 2026-04-22 16:00 | 28.74814 | 130.38634 | 33858 ft | 423 kts | 232° |
| 2026-04-22 16:00 | 28.70951 | 130.33572 | 33853 ft | 423 kts | 232° |
| 2026-04-22 16:01 | 28.67083 | 130.28516 | 33854 ft | 423 kts | 232° |
| 2026-04-22 16:01 | 28.63216 | 130.23466 | 33861 ft | 423 kts | 232° |
| 2026-04-22 16:02 | 28.59328 | 130.18395 | 33859 ft | 424 kts | 232° |
| 2026-04-22 16:02 | 28.55472 | 130.13379 | 33857 ft | 424 kts | 232° |
| 2026-04-22 16:03 | 28.51590 | 130.08327 | 33865 ft | 424 kts | 232° |
| 2026-04-22 16:03 | 28.47701 | 130.03269 | 33874 ft | 424 kts | 232° |
| 2026-04-22 16:04 | 28.43812 | 129.98219 | 33881 ft | 425 kts | 232° |
| 2026-04-22 16:04 | 28.39913 | 129.93172 | 33872 ft | 425 kts | 232° |
| 2026-04-22 16:05 | 28.36004 | 129.88121 | 33876 ft | 426 kts | 232° |
| 2026-04-22 16:05 | 28.32096 | 129.83067 | 33880 ft | 426 kts | 232° |
| 2026-04-22 16:06 | 28.28183 | 129.78012 | 33884 ft | 426 kts | 233° |
| 2026-04-22 16:06 | 28.24274 | 129.72972 | 33854 ft | 425 kts | 232° |
| 2026-04-22 16:07 | 28.20367 | 129.67937 | 33860 ft | 425 kts | 232° |
| 2026-04-22 16:07 | 28.16463 | 129.62911 | 33864 ft | 425 kts | 232° |
| 2026-04-22 16:08 | 28.12572 | 129.57924 | 33865 ft | 425 kts | 232° |
| 2026-04-22 16:08 | 28.08665 | 129.52907 | 33858 ft | 424 kts | 233° |
| 2026-04-22 16:09 | 28.04757 | 129.47896 | 33864 ft | 424 kts | 232° |
| 2026-04-22 16:09 | 28.01508 | 129.43737 | 33866 ft | 424 kts | 232° |
| 2026-04-22 16:10 | 27.97592 | 129.38733 | 33868 ft | 424 kts | 232° |
| 2026-04-22 16:10 | 27.93677 | 129.33731 | 33856 ft | 424 kts | 232° |
| 2026-04-22 16:11 | 27.89760 | 129.28725 | 33861 ft | 425 kts | 232° |
| 2026-04-22 16:11 | 27.85845 | 129.23729 | 33868 ft | 425 kts | 232° |
| 2026-04-22 16:12 | 27.81944 | 129.18767 | 33867 ft | 425 kts | 232° |
| 2026-04-22 16:12 | 27.78013 | 129.13772 | 33855 ft | 425 kts | 232° |
| 2026-04-22 16:13 | 27.74074 | 129.08773 | 33867 ft | 425 kts | 232° |
| 2026-04-22 16:13 | 27.70139 | 129.03783 | 33875 ft | 425 kts | 232° |
| 2026-04-22 16:14 | 27.66207 | 128.98803 | 33876 ft | 425 kts | 232° |
| 2026-04-22 16:14 | 27.62289 | 128.93848 | 33874 ft | 425 kts | 232° |
| 2026-04-22 16:15 | 27.58353 | 128.88877 | 33872 ft | 425 kts | 232° |
| 2026-04-22 16:15 | 27.54423 | 128.83917 | 33879 ft | 424 kts | 232° |
| 2026-04-22 16:16 | 27.50492 | 128.78961 | 33874 ft | 424 kts | 232° |
| 2026-04-22 16:16 | 27.48523 | 128.76487 | 33730 ft | 424 kts | 232° |
| 2026-04-22 16:16 | 27.46554 | 128.74013 | 33470 ft | 424 kts | 232° |
| 2026-04-22 16:17 | 27.44580 | 128.71526 | 33218 ft | 425 kts | 233° |
| 2026-04-22 16:17 | 27.42786 | 128.68898 | 32955 ft | 423 kts | 240° |
| 2026-04-22 16:17 | 27.41270 | 128.66065 | 32714 ft | 423 kts | 242° |
| 2026-04-22 16:17 | 27.39769 | 128.63197 | 32470 ft | 424 kts | 242° |
| 2026-04-22 16:18 | 27.38266 | 128.60337 | 32218 ft | 425 kts | 242° |
| 2026-04-22 16:18 | 27.36751 | 128.57459 | 31313 ft | 430 kts | 242° |
| 2026-04-22 16:18 | 27.35210 | 128.54532 | 30234 ft | 438 kts | 241° |
| 2026-04-22 16:18 | 27.33648 | 128.51563 | 29039 ft | 445 kts | 241° |
| 2026-04-22 16:19 | 27.32079 | 128.48584 | 27838 ft | 450 kts | 241° |
| 2026-04-22 16:19 | 27.30475 | 128.45547 | 26713 ft | 453 kts | 241° |
| 2026-04-22 16:19 | 27.28884 | 128.42539 | 25971 ft | 440 kts | 241° |
| 2026-04-22 16:19 | 27.27334 | 128.39616 | 25198 ft | 430 kts | 241° |
| 2026-04-22 16:20 | 27.25819 | 128.36758 | 24436 ft | 420 kts | 241° |
| 2026-04-22 16:20 | 27.24338 | 128.33966 | 23700 ft | 412 kts | 241° |
| 2026-04-22 16:20 | 27.22887 | 128.31226 | 22928 ft | 404 kts | 241° |
| 2026-04-22 16:20 | 27.21464 | 128.28541 | 22254 ft | 394 kts | 241° |
| 2026-04-22 16:21 | 27.20070 | 128.25910 | 21602 ft | 391 kts | 241° |
| 2026-04-22 16:21 | 27.18683 | 128.23291 | 20973 ft | 388 kts | 241° |
| 2026-04-22 16:21 | 27.17305 | 128.20691 | 20354 ft | 386 kts | 241° |
| 2026-04-22 16:21 | 27.15939 | 128.18116 | 19766 ft | 383 kts | 241° |
| 2026-04-22 16:22 | 27.13230 | 128.13007 | 18627 ft | 379 kts | 240° |
| 2026-04-22 16:22 | 27.11884 | 128.10474 | 18069 ft | 376 kts | 240° |
| 2026-04-22 16:22 | 27.10546 | 128.07958 | 17498 ft | 373 kts | 240° |
| 2026-04-22 16:23 | 27.07932 | 128.03050 | 16484 ft | 364 kts | 240° |
| 2026-04-22 16:23 | 27.06638 | 128.00626 | 15985 ft | 361 kts | 240° |
| 2026-04-22 16:23 | 27.05337 | 127.98191 | 15471 ft | 358 kts | 240° |
| 2026-04-22 16:24 | 27.04077 | 127.95831 | 14964 ft | 355 kts | 240° |
| 2026-04-22 16:24 | 27.01313 | 127.91282 | 13946 ft | 352 kts | 228° |
| 2026-04-22 16:24 | 26.99468 | 127.89483 | 13437 ft | 352 kts | 218° |
| 2026-04-22 16:25 | 26.97342 | 127.88113 | 12877 ft | 353 kts | 210° |
| 2026-04-22 16:25 | 26.92971 | 127.85637 | 11692 ft | 351 kts | 210° |
| 2026-04-22 16:25 | 26.90793 | 127.84397 | 11102 ft | 349 kts | 210° |
| 2026-04-22 16:26 | 26.88660 | 127.83183 | 10870 ft | 337 kts | 210° |
| 2026-04-22 16:26 | 26.86616 | 127.82025 | 10757 ft | 322 kts | 210° |
| 2026-04-22 16:26 | 26.84654 | 127.80915 | 10626 ft | 309 kts | 210° |
| 2026-04-22 16:26 | 26.82795 | 127.79861 | 10513 ft | 297 kts | 210° |
| 2026-04-22 16:27 | 26.80983 | 127.78831 | 10363 ft | 287 kts | 210° |
| 2026-04-22 16:27 | 26.79222 | 127.77827 | 10198 ft | 280 kts | 210° |
| 2026-04-22 16:27 | 26.77484 | 127.76837 | 10142 ft | 280 kts | 210° |
| 2026-04-22 16:27 | 26.75747 | 127.75850 | 10058 ft | 280 kts | 210° |
| 2026-04-22 16:28 | 26.74010 | 127.74867 | 9821 ft | 282 kts | 210° |
| 2026-04-22 16:28 | 26.72252 | 127.73869 | 9406 ft | 282 kts | 210° |
| 2026-04-22 16:28 | 26.70516 | 127.72883 | 9121 ft | 278 kts | 210° |
| 2026-04-22 16:28 | 26.68807 | 127.71912 | 8558 ft | 274 kts | 210° |
| 2026-04-22 16:29 | 26.67120 | 127.70957 | 8008 ft | 268 kts | 210° |
| 2026-04-22 16:29 | 26.65466 | 127.70024 | 7576 ft | 264 kts | 210° |
| 2026-04-22 16:29 | 26.63829 | 127.69098 | 7161 ft | 264 kts | 210° |
| 2026-04-22 16:29 | 26.62185 | 127.68167 | 6741 ft | 265 kts | 210° |
| 2026-04-22 16:30 | 26.61099 | 127.67553 | 6499 ft | 263 kts | 210° |
| 2026-04-22 16:30 | 26.58943 | 127.66335 | 5989 ft | 260 kts | 210° |
| 2026-04-22 16:30 | 26.57324 | 127.65420 | 5606 ft | 259 kts | 209° |
| 2026-04-22 16:30 | 26.55722 | 127.64514 | 5245 ft | 257 kts | 209° |
| 2026-04-22 16:31 | 26.54109 | 127.63603 | 4848 ft | 256 kts | 209° |
| 2026-04-22 16:31 | 26.52547 | 127.62720 | 4456 ft | 254 kts | 209° |
| 2026-04-22 16:31 | 26.50970 | 127.61852 | 4043 ft | 252 kts | 204° |
| 2026-04-22 16:31 | 26.49262 | 127.61404 | 3647 ft | 254 kts | 187° |
| 2026-04-22 16:32 | 26.47496 | 127.61551 | 3238 ft | 256 kts | 174° |
| 2026-04-22 16:32 | 26.45746 | 127.61866 | 2895 ft | 251 kts | 175° |
| 2026-04-22 16:32 | 26.44080 | 127.62167 | 2768 ft | 233 kts | 175° |
| 2026-04-22 16:32 | 26.42534 | 127.62448 | 2549 ft | 220 kts | 175° |
| 2026-04-22 16:33 | 26.41031 | 127.62715 | 2219 ft | 221 kts | 175° |
| 2026-04-22 16:33 | 26.39517 | 127.62977 | 1718 ft | 213 kts | 175° |
| 2026-04-22 16:33 | 26.38132 | 127.63222 | 1504 ft | 192 kts | 175° |
| 2026-04-22 16:33 | 26.36831 | 127.63453 | 1399 ft | 187 kts | 175° |
| 2026-04-22 16:34 | 26.35607 | 127.63672 | 1330 ft | 165 kts | 176° |
| 2026-04-22 16:34 | 26.34552 | 127.63864 | 1263 ft | 147 kts | 176° |
| 2026-04-22 16:34 | 26.33561 | 127.63940 | 1246 ft | 140 kts | 183° |
| 2026-04-22 16:34 | 26.32585 | 127.63981 | 1231 ft | 140 kts | 182° |
| 2026-04-22 16:35 | 26.31626 | 127.64023 | 1235 ft | 139 kts | 182° |
| 2026-04-22 16:35 | 26.30647 | 127.64067 | 1233 ft | 140 kts | 181° |
| 2026-04-22 16:35 | 26.29689 | 127.64112 | 1203 ft | 139 kts | 181° |
| 2026-04-22 16:35 | 26.28722 | 127.64158 | 1211 ft | 139 kts | 180° |
| 2026-04-22 16:36 | 26.27758 | 127.64204 | 1208 ft | 139 kts | 180° |
| 2026-04-22 16:36 | 26.26794 | 127.64249 | 1203 ft | 139 kts | 180° |
| 2026-04-22 16:36 | 26.25821 | 127.64302 | 1046 ft | 141 kts | 180° |
| 2026-04-22 16:36 | 26.24851 | 127.64356 | 812 ft | 137 kts | 180° |
| 2026-04-22 16:37 | 26.23894 | 127.64401 | 583 ft | 139 kts | 180° |
| 2026-04-22 16:37 | 26.22931 | 127.64444 | 431 ft | 137 kts | 179° |
| 2026-04-22 16:37 | 26.21989 | 127.64494 | 268 ft | 136 kts | 179° |
| 2026-04-22 16:37 | 26.21039 | 127.64531 | 106 ft | 137 kts | 179° |
| 2026-04-22 16:38 | 26.20117 | 127.64568 | 21 ft | 119 kts | 178° |
| 2026-04-22 16:38 | 26.19459 | 127.64600 | 21 ft | 70 kts | 177° |
| 2026-04-22 16:38 | 26.19103 | 127.64620 | 24 ft | 39 kts | 175° |
| 2026-04-22 16:38 | 26.18923 | 127.64667 | 24 ft | 23 kts | 157° |
| 2026-04-22 16:39 | 26.18845 | 127.64716 | 25 ft | 6 kts | 147° |
| 2026-04-22 16:39 | 26.18829 | 127.64728 | 25 ft | 0 kts | 143° |
| 2026-04-22 16:41 | 26.18810 | 127.64752 | 23 ft | 8 kts | 122° |
| 2026-04-22 16:41 | 26.18821 | 127.64817 | 24 ft | 9 kts | 50° |
| 2026-04-22 16:42 | 26.18875 | 127.64834 | 23 ft | 9 kts | 359° |
| 2026-04-22 16:42 | 26.18954 | 127.64831 | 23 ft | 15 kts | 358° |
| 2026-04-22 16:42 | 26.19073 | 127.64826 | 22 ft | 17 kts | 357° |
| 2026-04-22 16:42 | 26.19188 | 127.64820 | 22 ft | 16 kts | 357° |
| 2026-04-22 16:43 | 26.19294 | 127.64815 | 22 ft | 15 kts | 358° |
| 2026-04-22 16:43 | 26.19392 | 127.64810 | 22 ft | 13 kts | 357° |
| 2026-04-22 16:43 | 26.19480 | 127.64806 | 22 ft | 12 kts | 357° |
| 2026-04-22 16:43 | 26.19575 | 127.64802 | 22 ft | 20 kts | 358° |
| 2026-04-22 16:44 | 26.19761 | 127.64793 | 22 ft | 27 kts | 357° |
| 2026-04-22 16:44 | 26.19937 | 127.64785 | 22 ft | 24 kts | 357° |
| 2026-04-22 16:44 | 26.20100 | 127.64777 | 22 ft | 22 kts | 357° |
| 2026-04-22 16:44 | 26.20249 | 127.64771 | 22 ft | 21 kts | 358° |
| 2026-04-22 16:45 | 26.20387 | 127.64764 | 22 ft | 19 kts | 357° |
| 2026-04-22 16:45 | 26.20514 | 127.64758 | 22 ft | 17 kts | 358° |
| 2026-04-22 16:45 | 26.20612 | 127.64777 | 22 ft | 14 kts | 40° |
| 2026-04-22 16:45 | 26.20634 | 127.64865 | 22 ft | 9 kts | 88° |
| 2026-04-22 16:46 | 26.20668 | 127.64905 | 24 ft | 7 kts | 20° |
| 2026-04-22 16:46 | 26.20701 | 127.64921 | 22 ft | 3 kts | 27° |
| 2026-04-22 16:46 | 26.20715 | 127.64929 | 22 ft | 2 kts | 28° |
| 2026-04-22 16:46 | 26.20717 | 127.64930 | 22 ft | 0 kts | 28° |